Airfield :
LOGIN :

Register | Disclaimer

   EN    FR    IT 

 










Legend :    VFR   Marginal VFR   IFR   Intensive IFR   Very Intensive IFR
Visi :
Ceiling :
>= 8 km
>= 3000ft
5 to 8 km
1000 to 3000 ft
1500m to 5 km
500 to 1000 ft
800 to 1500m
200 to 500 ft
< 800m
< 200 ft
Symbols :   Thunderstorms  Fog  Heavy snow  Heavy precipitations  Wind > 20 kt
SIGMETs :     Misc.  Thunderstorms  Icing  Turbulence  Mountain Waves  Volcanic Ashes







- Airport Elevation : 245 ft
- IATA code : BIQ
- Download approach charts


LFBZ - Biarritz

CURRENT METAR :
  • 252130Z AUTO 26014KT 230V290 CAVOK 19/17 Q1013 BECMG VRB03KT

EXPIRED METARs :
  • 252100Z AUTO 25010KT 170V280 CAVOK 23/16 Q1012 NOSIG
  • 252030Z AUTO 13004KT 100V170 CAVOK 26/15 Q1011 NOSIG
  • 252000Z AUTO 11004KT CAVOK 27/16 Q1010 NOSIG
  • 251930Z AUTO 08006KT CAVOK 28/16 Q1010 NOSIG
  • 251900Z AUTO 08006KT CAVOK 29/16 Q1010 NOSIG

TAF TAF LFBZ
Valid from the 25 at 18:00 until the 26 at 18:00 UTC


251700Z 2518/2618 09010KT CAVOK
BECMG 2520/2522 VRB03KT
PROB30
TEMPO 2600/2604 27010KT
BECMG 2610/2612 08008KT
BECMG 2615/2616 27015KT 4000 BR BKN005
No reported NOTAMs for that airfield.



MET'MAP, your aeronautical weather chart ! - Copyright ORBIFLY December 2007 - Disclaimer

ORBIFLY MET'MAP TEAM :

Programming & Development : Alexandra Zaïnal
Concept & Development : Baudouin d'Aumeries
Co-Development & Prog : Marc-Olivier Méhu
Technical & hardware support : Manuel Goepfert

Contact : metmap@orbifly.com




SOURCES & CREDITS :

   NOAA